createdAt,value
2018-05-04T00:01:45.901Z,17.13
2018-05-04T00:04:18.502Z,17.33
2018-05-04T00:06:50.947Z,16.10
2018-05-04T00:09:24.740Z,16.23
2018-05-04T00:11:57.664Z,12.27
2018-05-04T00:14:30.178Z,22.37
2018-05-04T00:17:02.693Z,13.53
2018-05-04T00:19:35.393Z,15.00
2018-05-04T00:22:08.950Z,19.97
2018-05-04T00:24:41.495Z,16.07
2018-05-04T00:27:15.249Z,14.17
2018-05-04T00:29:48.661Z,12.43
2018-05-04T00:32:22.172Z,18.97
2018-05-04T00:34:54.914Z,16.53
2018-05-04T00:37:28.383Z,12.10
2018-05-04T00:40:01.614Z,14.83
2018-05-04T00:42:34.514Z,14.10
2018-05-04T00:45:07.765Z,10.87
2018-05-04T00:47:40.437Z,11.30
2018-05-04T00:50:13.555Z,11.67
2018-05-04T00:52:46.287Z,13.13
2018-05-04T00:55:19.610Z,11.33
2018-05-04T00:57:52.965Z,13.23
2018-05-04T01:00:25.267Z,12.93
2018-05-04T01:02:57.693Z,9.90
2018-05-04T01:05:30.015Z,10.57
2018-05-04T01:08:02.528Z,8.97
2018-05-04T01:10:35.876Z,14.30
2018-05-04T01:13:08.573Z,9.70
2018-05-04T01:15:41.456Z,14.87
2018-05-04T01:18:14.091Z,14.73
2018-05-04T01:20:46.543Z,12.73
2018-05-04T01:23:19.878Z,12.63
2018-05-04T01:25:53.389Z,14.10
2018-05-04T01:28:26.259Z,12.70
2018-05-04T01:30:58.762Z,10.87
2018-05-04T01:33:32.200Z,19.17
2018-05-04T01:36:05.622Z,10.23
2018-05-04T01:38:38.462Z,12.80
2018-05-04T01:41:10.815Z,11.40
2018-05-04T01:43:43.367Z,12.73
2018-05-04T01:46:16.439Z,11.10
2018-05-04T01:48:49.318Z,24.90
2018-05-04T01:51:23.454Z,9.77
2018-05-04T01:53:57.005Z,9.53
2018-05-04T01:56:30.320Z,13.53
2018-05-04T01:59:03.058Z,9.23
2018-05-04T02:01:35.477Z,15.87
2018-05-04T02:04:08.038Z,14.13
2018-05-04T02:06:41.387Z,14.40
2018-05-04T02:09:14.781Z,11.17
2018-05-04T02:11:48.179Z,12.97
2018-05-04T02:14:21.799Z,14.23
2018-05-04T02:16:54.544Z,14.43
2018-05-04T02:19:27.817Z,14.13
2018-05-04T02:22:01.130Z,14.93
2018-05-04T02:24:34.224Z,10.93
2018-05-04T02:27:07.302Z,23.73
2018-05-04T02:29:40.772Z,15.77
2018-05-04T02:32:13.393Z,14.73
2018-05-04T02:34:45.941Z,9.70
2018-05-04T02:37:19.140Z,14.43
2018-05-04T02:39:51.921Z,18.33
2018-05-04T02:42:24.425Z,11.53
2018-05-04T02:44:57.065Z,11.83
2018-05-04T02:47:29.609Z,12.07
2018-05-04T02:50:02.025Z,11.00
2018-05-04T02:52:34.400Z,11.13
2018-05-04T02:55:06.930Z,7.63
2018-05-04T02:57:39.279Z,16.00
2018-05-04T03:00:12.757Z,11.60
2018-05-04T03:02:45.205Z,17.03
2018-05-04T03:05:17.868Z,13.23
2018-05-04T03:07:51.181Z,14.20
2018-05-04T03:10:23.554Z,11.43
2018-05-04T03:12:56.789Z,13.10
2018-05-04T03:15:29.558Z,18.83
2018-05-04T03:18:03.637Z,14.47
2018-05-04T03:20:36.303Z,14.67
2018-05-04T03:23:08.923Z,12.03
2018-05-04T03:25:42.924Z,12.17
2018-05-04T03:28:16.709Z,15.60
2018-05-04T03:30:49.541Z,21.47
2018-05-04T03:33:22.875Z,12.03
2018-05-04T03:35:56.305Z,15.57
2018-05-04T03:38:29.285Z,14.87
2018-05-04T03:41:02.340Z,11.30
2018-05-04T03:43:35.605Z,19.27
2018-05-04T03:46:08.100Z,12.93
2018-05-04T03:48:40.577Z,12.43
2018-05-04T03:51:13.974Z,11.73
2018-05-04T03:53:47.263Z,11.90
2018-05-04T03:56:19.985Z,17.97
2018-05-04T03:59:11.139Z,20.50
2018-05-04T04:02:02.795Z,18.10
2018-05-04T04:04:37.329Z,13.50
2018-05-04T04:07:11.267Z,23.00
2018-05-04T04:09:44.883Z,15.83
2018-05-04T04:12:18.261Z,13.03
2018-05-04T04:14:50.851Z,10.83
2018-05-04T04:17:23.487Z,14.10
2018-05-04T04:19:55.935Z,14.40
2018-05-04T04:22:29.283Z,17.27
2018-05-04T04:25:01.894Z,19.37
2018-05-04T04:27:34.385Z,17.10
2018-05-04T04:30:06.943Z,19.80
2018-05-04T04:32:39.403Z,25.03
2018-05-04T04:35:11.818Z,20.70
2018-05-04T04:37:44.267Z,20.40
2018-05-04T04:40:16.710Z,15.93
2018-05-04T04:42:49.187Z,14.40
2018-05-04T04:45:21.710Z,16.93
2018-05-04T04:47:54.128Z,17.50
2018-05-04T04:50:26.656Z,18.70
2018-05-04T04:52:59.386Z,21.90
2018-05-04T04:55:32.557Z,16.53
2018-05-04T04:58:06.394Z,16.13
2018-05-04T05:00:39.045Z,17.50
2018-05-04T05:03:12.150Z,19.77
2018-05-04T05:05:45.030Z,20.10
2018-05-04T05:08:17.564Z,22.63
2018-05-04T05:10:50.060Z,17.03
2018-05-04T05:13:23.300Z,16.00
2018-05-04T05:15:55.945Z,17.63
2018-05-04T05:18:28.423Z,20.40
2018-05-04T05:21:00.851Z,16.73
2018-05-04T05:23:35.922Z,20.80
2018-05-04T05:26:09.233Z,18.57
2018-05-04T05:28:42.076Z,19.30
2018-05-04T05:31:14.671Z,21.87
2018-05-04T05:33:47.263Z,13.77
2018-05-04T05:36:19.614Z,18.23
2018-05-04T05:38:52.149Z,24.03
2018-05-04T05:41:24.607Z,18.80
2018-05-04T05:43:57.156Z,23.53
2018-05-04T05:46:30.343Z,36.67
2018-05-04T05:49:02.973Z,24.13
2018-05-04T05:51:36.279Z,21.40
2018-05-04T05:54:09.071Z,14.43
2018-05-04T05:56:42.651Z,19.70
2018-05-04T05:59:16.077Z,20.03
2018-05-04T06:01:49.396Z,21.40
2018-05-04T06:04:23.464Z,20.00
2018-05-04T06:06:56.129Z,14.70
2018-05-04T06:09:28.678Z,16.80
2018-05-04T06:12:01.803Z,20.57
2018-05-04T06:14:34.792Z,15.13
2018-05-04T06:17:07.995Z,16.60
2018-05-04T06:19:40.878Z,16.13
2018-05-04T06:22:14.384Z,16.17
2018-05-04T06:24:47.322Z,21.13
2018-05-04T06:27:19.692Z,16.03
2018-05-04T06:29:52.275Z,16.63
2018-05-04T06:32:25.588Z,19.00
2018-05-04T06:34:58.962Z,25.33
2018-05-04T06:37:32.183Z,22.90
2018-05-04T06:40:04.967Z,19.40
2018-05-04T06:42:37.460Z,16.30
2018-05-04T06:45:10.086Z,16.53
2018-05-04T06:47:43.377Z,17.43
2018-05-04T06:50:16.747Z,22.33
2018-05-04T06:52:50.026Z,22.43
2018-05-04T06:55:22.654Z,18.43
2018-05-04T06:57:55.329Z,17.00
2018-05-04T07:00:28.554Z,17.67
2018-05-04T07:03:00.884Z,21.30
2018-05-04T07:05:33.324Z,22.13
2018-05-04T07:08:06.602Z,17.60
2018-05-04T07:10:39.466Z,18.83
2018-05-04T07:13:13.360Z,16.93
2018-05-04T07:15:45.946Z,21.20
2018-05-04T07:18:19.154Z,18.70
2018-05-04T07:20:51.963Z,23.03
2018-05-04T07:23:24.483Z,16.70
2018-05-04T07:25:56.908Z,26.50
2018-05-04T07:28:29.465Z,15.70
2018-05-04T07:31:02.218Z,18.03
2018-05-04T07:33:34.597Z,16.70
2018-05-04T07:36:07.126Z,18.17
2018-05-04T07:38:39.534Z,18.17
2018-05-04T07:41:12.143Z,27.63
2018-05-04T07:43:44.807Z,22.90
2018-05-04T07:46:18.361Z,18.33
2018-05-04T07:48:51.750Z,16.07
2018-05-04T07:51:25.027Z,17.70
2018-05-04T07:53:57.687Z,22.57
2018-05-04T07:56:36.299Z,21.83
2018-05-04T07:59:09.622Z,21.20
2018-05-04T08:01:42.133Z,16.10
2018-05-04T08:04:14.612Z,21.07
2018-05-04T08:06:46.921Z,19.80
2018-05-04T08:09:19.481Z,16.23
2018-05-04T08:11:52.021Z,18.00
2018-05-04T08:14:24.449Z,19.37
2018-05-04T08:16:56.957Z,16.80
2018-05-04T08:19:30.384Z,21.60
2018-05-04T08:22:03.529Z,20.07
2018-05-04T08:24:37.585Z,18.70
2018-05-04T08:27:10.640Z,20.53
2018-05-04T08:29:43.988Z,22.37
2018-05-04T08:32:17.500Z,15.67
2018-05-04T08:34:50.134Z,26.63
2018-05-04T08:37:22.576Z,18.33
2018-05-04T08:39:55.939Z,20.40
2018-05-04T08:42:29.661Z,18.97
2018-05-04T08:45:02.418Z,24.50
2018-05-04T08:47:34.851Z,20.70
2018-05-04T08:50:08.040Z,19.23
2018-05-04T08:52:40.436Z,23.77
2018-05-04T08:55:13.672Z,27.57
2018-05-04T08:57:46.443Z,25.30
2018-05-04T09:00:20.594Z,21.43
2018-05-04T09:02:54.141Z,22.70
2018-05-04T09:05:26.847Z,21.27
2018-05-04T09:07:59.372Z,25.37
2018-05-04T09:10:33.435Z,30.23
2018-05-04T09:13:07.010Z,23.33
2018-05-04T09:15:39.698Z,25.73
2018-05-04T09:18:12.988Z,26.33
2018-05-04T09:20:45.883Z,28.43
2018-05-04T09:23:19.290Z,24.10
2018-05-04T09:25:52.477Z,28.13
2018-05-04T09:28:25.774Z,29.17
2018-05-04T09:30:58.336Z,36.60
2018-05-04T09:33:30.775Z,34.87
2018-05-04T09:36:03.192Z,27.17
2018-05-04T09:38:35.775Z,27.17
2018-05-04T09:41:08.297Z,35.60
2018-05-04T09:43:40.972Z,40.57
2018-05-04T09:46:13.553Z,32.87
2018-05-04T09:48:46.187Z,40.03
2018-05-04T09:51:19.019Z,35.03
2018-05-04T09:53:51.533Z,33.97
2018-05-04T09:56:24.887Z,40.50
2018-05-04T09:58:58.262Z,31.67
2018-05-04T10:01:31.119Z,34.40
2018-05-04T10:04:04.434Z,30.07
2018-05-04T10:06:37.803Z,33.60
2018-05-04T10:09:10.392Z,37.40
2018-05-04T10:11:43.649Z,33.63
2018-05-04T10:14:16.263Z,35.13
2018-05-04T10:16:49.665Z,29.33
2018-05-04T10:19:22.945Z,38.27
2018-05-04T10:21:55.444Z,29.57
2018-05-04T10:24:28.642Z,31.53
2018-05-04T10:27:01.233Z,31.53
2018-05-04T10:29:33.814Z,30.63
2018-05-04T10:32:07.013Z,32.40
2018-05-04T10:34:39.496Z,28.53
2018-05-04T10:37:11.802Z,30.17
2018-05-04T10:39:44.278Z,29.60
2018-05-04T10:42:17.610Z,29.77
2018-05-04T10:44:50.339Z,34.67
2018-05-04T10:47:22.933Z,30.30
2018-05-04T10:49:55.595Z,32.70
2018-05-04T10:52:28.010Z,31.60
2018-05-04T10:55:00.534Z,30.43
2018-05-04T10:57:33.010Z,37.70
2018-05-04T11:00:05.861Z,29.90
2018-05-04T11:02:38.288Z,29.50
2018-05-04T11:05:10.833Z,29.77
2018-05-04T11:07:43.349Z,26.27
2018-05-04T11:10:16.616Z,29.47
2018-05-04T11:12:49.258Z,29.30
2018-05-04T11:15:21.924Z,28.20
2018-05-04T11:17:55.844Z,33.23
2018-05-04T11:20:28.546Z,29.90
2018-05-04T11:23:01.126Z,29.23
2018-05-04T11:25:34.197Z,27.23
2018-05-04T11:28:07.591Z,31.53
2018-05-04T11:30:40.437Z,28.00
2018-05-04T11:33:12.830Z,27.17
2018-05-04T11:35:45.308Z,22.47
2018-05-04T11:38:19.353Z,22.13
2018-05-04T11:40:53.136Z,25.33
2018-05-04T11:43:25.661Z,28.80
2018-05-04T11:45:58.947Z,32.30
2018-05-04T11:48:31.613Z,24.10
2018-05-04T11:51:04.001Z,22.60
2018-05-04T11:53:37.256Z,25.23
2018-05-04T11:56:09.855Z,22.57
2018-05-04T11:58:43.293Z,22.30
2018-05-04T12:01:16.222Z,26.83
2018-05-04T12:03:49.730Z,27.17
2018-05-04T12:06:23.384Z,25.63
2018-05-04T12:08:56.144Z,23.50
2018-05-04T12:11:28.782Z,24.30
2018-05-04T12:14:01.237Z,31.13
2018-05-04T12:16:34.696Z,25.10
2018-05-04T12:19:07.642Z,27.43
2018-05-04T12:21:40.840Z,22.87
2018-05-04T12:24:13.509Z,24.10
2018-05-04T12:26:45.989Z,26.30
2018-05-04T12:29:19.184Z,23.20
2018-05-04T12:31:52.019Z,26.20
2018-05-04T12:34:25.262Z,29.60
2018-05-04T12:36:57.734Z,26.60
2018-05-04T12:39:30.179Z,28.73
2018-05-04T12:42:02.946Z,33.33
2018-05-04T12:44:35.937Z,34.50
2018-05-04T12:47:09.266Z,26.97
2018-05-04T12:49:41.981Z,32.10
2018-05-04T12:52:14.847Z,31.27
2018-05-04T12:54:48.655Z,27.93
2018-05-04T12:57:21.311Z,28.20
2018-05-04T12:59:54.686Z,32.50
2018-05-04T13:02:27.446Z,28.80
2018-05-04T13:05:02.133Z,28.50
2018-05-04T13:07:35.185Z,31.43
2018-05-04T13:10:08.543Z,31.30
2018-05-04T13:12:41.154Z,27.80
2018-05-04T13:15:16.823Z,28.73
2018-05-04T13:17:50.898Z,27.00
2018-05-04T13:20:23.797Z,29.37
2018-05-04T13:22:57.146Z,28.57
2018-05-04T13:25:29.619Z,34.70
2018-05-04T13:28:02.726Z,24.53
2018-05-04T13:30:37.146Z,25.17
2018-05-04T13:33:10.872Z,24.90
2018-05-04T13:35:43.903Z,24.43
2018-05-04T13:38:17.330Z,25.40
2018-05-04T13:40:50.575Z,23.03
2018-05-04T13:43:23.991Z,26.50
2018-05-04T13:45:56.565Z,27.07
2018-05-04T13:48:29.175Z,24.03
2018-05-04T13:51:02.477Z,26.07
2018-05-04T13:53:36.021Z,24.00
2018-05-04T13:56:09.305Z,26.50
2018-05-04T13:58:41.992Z,25.90
2018-05-04T14:01:16.057Z,26.07
2018-05-04T14:03:48.640Z,29.17
2018-05-04T14:06:21.039Z,27.97
2018-05-04T14:08:54.275Z,32.80
2018-05-04T14:11:27.156Z,23.03
2018-05-04T14:14:00.552Z,25.20
2018-05-04T14:16:33.300Z,25.23
2018-05-04T14:19:05.908Z,24.23
2018-05-04T14:21:38.543Z,21.40
2018-05-04T14:24:11.223Z,27.30
2018-05-04T14:26:45.139Z,20.27
2018-05-04T14:29:18.342Z,20.53
2018-05-04T14:31:51.557Z,28.47
2018-05-04T14:34:24.336Z,24.80
2018-05-04T14:36:57.099Z,25.73
2018-05-04T14:39:29.727Z,26.50
2018-05-04T14:42:02.246Z,25.10
2018-05-04T14:44:34.859Z,19.87
2018-05-04T14:47:07.975Z,22.93
2018-05-04T14:49:40.430Z,27.07
2018-05-04T14:52:13.725Z,27.47
2018-05-04T14:54:46.275Z,23.40
2018-05-04T14:57:18.593Z,27.87
2018-05-04T14:59:51.190Z,42.43
2018-05-04T15:02:23.678Z,23.63
2018-05-04T15:04:56.101Z,30.43
2018-05-04T15:07:28.506Z,26.43
2018-05-04T15:10:01.312Z,29.67
2018-05-04T15:12:33.767Z,31.13
2018-05-04T15:15:06.914Z,28.20
2018-05-04T15:17:40.716Z,27.20
2018-05-04T15:20:13.634Z,21.67
2018-05-04T15:22:46.774Z,26.70
2018-05-04T15:25:19.352Z,28.90
2018-05-04T15:27:52.180Z,23.20
2018-05-04T15:30:26.288Z,26.90
2018-05-04T15:32:59.875Z,27.77
2018-05-04T15:35:32.675Z,31.83
2018-05-04T15:38:05.093Z,27.90
2018-05-04T15:40:37.852Z,26.57
2018-05-04T15:43:10.243Z,21.07
2018-05-04T15:45:43.129Z,22.07
2018-05-04T15:48:22.223Z,24.10
2018-05-04T15:51:01.822Z,23.50
2018-05-04T15:53:34.847Z,26.90
2018-05-04T15:56:07.398Z,22.80
2018-05-04T15:58:40.766Z,23.63
2018-05-04T16:01:13.283Z,19.97
2018-05-04T16:03:46.659Z,22.90
2018-05-04T16:06:19.237Z,21.20
2018-05-04T16:08:52.551Z,20.00
2018-05-04T16:11:25.222Z,19.33
2018-05-04T16:14:04.561Z,20.23
2018-05-04T16:16:37.193Z,21.90
2018-05-04T16:19:10.495Z,17.50
2018-05-04T16:21:43.766Z,18.67
2018-05-04T16:24:16.344Z,20.30
2018-05-04T16:26:48.780Z,27.60
2018-05-04T16:29:21.257Z,18.20
2018-05-04T16:31:53.672Z,23.70
2018-05-04T16:34:26.310Z,18.27
2018-05-04T16:36:59.698Z,19.30
2018-05-04T16:39:32.041Z,19.40
2018-05-04T16:42:04.751Z,17.73
2018-05-04T16:44:37.369Z,19.87
2018-05-04T16:47:16.715Z,19.77
2018-05-04T16:49:50.154Z,20.53
2018-05-04T16:52:22.623Z,17.93
2018-05-04T16:54:55.321Z,26.33
2018-05-04T16:57:28.559Z,23.97
2018-05-04T17:00:01.095Z,20.53
2018-05-04T17:02:33.627Z,18.07
2018-05-04T17:05:06.787Z,18.73
2018-05-04T17:07:40.190Z,18.73
2018-05-04T17:10:13.754Z,20.20
2018-05-04T17:12:46.858Z,20.40
2018-05-04T17:15:19.955Z,20.43
2018-05-04T17:17:54.217Z,49.87
2018-05-04T17:20:26.833Z,20.67
2018-05-04T17:23:00.191Z,19.67
2018-05-04T17:25:32.995Z,21.40
2018-05-04T17:28:06.218Z,29.67
2018-05-04T17:30:38.742Z,20.90
2018-05-04T17:33:11.923Z,21.03
2018-05-04T17:35:45.094Z,16.77
2018-05-04T17:38:39.811Z,23.70
2018-05-04T17:41:12.607Z,27.20
2018-05-04T17:43:45.065Z,24.43
2018-05-04T17:46:17.581Z,22.70
2018-05-04T17:48:57.548Z,18.23
2018-05-04T17:51:30.674Z,24.33
2018-05-04T17:54:03.901Z,28.07
2018-05-04T17:56:36.993Z,26.93
2018-05-04T17:59:09.537Z,27.53
2018-05-04T18:01:42.893Z,24.00
2018-05-04T18:04:15.408Z,22.80
2018-05-04T18:06:47.942Z,28.17
2018-05-04T18:09:21.438Z,24.03
2018-05-04T18:11:54.217Z,19.17
2018-05-04T18:14:26.938Z,21.83
2018-05-04T18:16:59.357Z,23.00
2018-05-04T18:19:31.930Z,23.67
2018-05-04T18:22:05.913Z,22.60
2018-05-04T18:24:39.438Z,21.50
2018-05-04T18:27:12.006Z,24.03
2018-05-04T18:29:45.253Z,26.20
2018-05-04T18:32:19.491Z,24.70
2018-05-04T18:34:52.185Z,22.47
2018-05-04T18:37:25.266Z,24.67
2018-05-04T18:39:58.081Z,25.03
2018-05-04T18:42:31.449Z,29.87
2018-05-04T18:45:03.963Z,28.03
2018-05-04T18:47:38.016Z,27.20
2018-05-04T18:50:11.982Z,21.87
2018-05-04T18:52:45.183Z,22.33
2018-05-04T18:55:17.923Z,28.80
2018-05-04T18:57:53.303Z,25.40
2018-05-04T19:00:26.098Z,38.03
2018-05-04T19:03:04.775Z,27.10
2018-05-04T19:05:38.187Z,26.53
2018-05-04T19:08:10.921Z,24.10
2018-05-04T19:10:44.797Z,27.60
2018-05-04T19:13:17.429Z,30.67
2018-05-04T19:15:50.105Z,25.00
2018-05-04T19:18:23.406Z,22.70
2018-05-04T19:20:56.239Z,22.63
2018-05-04T19:23:29.411Z,22.70
2018-05-04T19:26:02.346Z,27.83
2018-05-04T19:28:35.709Z,28.23
2018-05-04T19:31:09.850Z,27.70
2018-05-04T19:33:42.234Z,29.57
2018-05-04T19:36:14.988Z,25.40
2018-05-04T19:38:49.035Z,24.60
2018-05-04T19:41:21.650Z,29.23
2018-05-04T19:43:56.686Z,28.67
2018-05-04T19:46:29.712Z,26.17
2018-05-04T19:49:02.779Z,25.60
2018-05-04T19:51:36.125Z,24.20
2018-05-04T19:54:08.709Z,27.37
2018-05-04T19:56:42.107Z,30.00
2018-05-04T19:59:15.469Z,30.63
2018-05-04T20:01:48.895Z,30.87
2018-05-04T20:04:22.491Z,24.33
2018-05-04T20:06:55.039Z,30.43
2018-05-04T20:09:28.302Z,25.20
2018-05-04T20:12:00.822Z,25.90
2018-05-04T20:14:34.791Z,33.00
2018-05-04T20:17:07.765Z,24.93
2018-05-04T20:19:40.393Z,27.97
2018-05-04T20:22:13.880Z,32.90
2018-05-04T20:24:46.304Z,32.07
2018-05-04T20:27:18.840Z,27.37
2018-05-04T20:29:52.531Z,27.47
2018-05-04T20:32:25.610Z,24.83
2018-05-04T20:34:58.961Z,29.73
2018-05-04T20:37:31.584Z,27.10
2018-05-04T20:40:04.697Z,27.27
2018-05-04T20:42:37.373Z,28.67
2018-05-04T20:45:09.769Z,30.03
2018-05-04T20:47:42.236Z,25.33
2018-05-04T20:50:14.803Z,24.00
2018-05-04T20:52:47.342Z,30.27
2018-05-04T20:55:19.733Z,29.40
2018-05-04T20:57:53.993Z,28.10
2018-05-04T21:00:26.576Z,25.37
2018-05-04T21:02:59.061Z,29.47
2018-05-04T21:05:32.315Z,25.33
2018-05-04T21:08:05.071Z,34.43
2018-05-04T21:10:38.171Z,30.00
2018-05-04T21:13:11.894Z,32.53
2018-05-04T21:15:44.622Z,32.93
2018-05-04T21:18:17.856Z,27.40
2018-05-04T21:20:50.401Z,28.50
2018-05-04T21:23:23.025Z,31.93
2018-05-04T21:25:55.388Z,28.03
2018-05-04T21:28:27.993Z,36.23
2018-05-04T21:31:00.472Z,31.80
2018-05-04T21:33:34.021Z,32.93
2018-05-04T21:36:06.473Z,32.63
2018-05-04T21:38:39.727Z,31.10
2018-05-04T21:41:12.720Z,30.10
2018-05-04T21:43:45.337Z,23.43
2018-05-04T21:46:17.760Z,31.03
2018-05-04T21:48:50.496Z,28.30
2018-05-04T21:51:23.151Z,25.93
2018-05-04T21:53:57.180Z,26.30
2018-05-04T21:56:29.759Z,26.30
2018-05-04T21:59:02.252Z,37.73
2018-05-04T22:01:34.542Z,46.07
2018-05-04T22:04:06.886Z,35.20
2018-05-04T22:06:39.449Z,39.30
2018-05-04T22:09:12.543Z,40.03
2018-05-04T22:11:46.201Z,37.20
2018-05-04T22:14:19.418Z,38.23
2018-05-04T22:16:51.990Z,34.90
2018-05-04T22:19:25.290Z,37.33
2018-05-04T22:21:57.948Z,35.47
2018-05-04T22:24:30.617Z,36.70
2018-05-04T22:27:03.910Z,38.93
2018-05-04T22:29:36.782Z,29.17
2018-05-04T22:32:09.954Z,45.53
2018-05-04T22:34:42.512Z,33.30
2018-05-04T22:37:15.826Z,32.77
2018-05-04T22:39:50.281Z,36.07
2018-05-04T22:42:23.085Z,41.40
2018-05-04T22:44:55.598Z,41.30
2018-05-04T22:47:28.825Z,31.20
2018-05-04T22:50:02.593Z,33.23
2018-05-04T22:52:36.716Z,35.87
2018-05-04T22:55:09.707Z,34.70
2018-05-04T22:57:43.363Z,44.80
2018-05-04T23:00:17.683Z,34.80
2018-05-04T23:02:50.415Z,35.27
2018-05-04T23:05:22.993Z,34.73
2018-05-04T23:07:56.142Z,38.03
2018-05-04T23:10:28.817Z,37.10
2018-05-04T23:13:01.327Z,37.80
2018-05-04T23:15:33.776Z,34.17
2018-05-04T23:18:06.160Z,38.37
2018-05-04T23:20:38.783Z,40.70
2018-05-04T23:23:11.155Z,40.33
2018-05-04T23:25:43.686Z,41.57
2018-05-04T23:28:16.107Z,49.87
2018-05-04T23:30:49.471Z,35.63
2018-05-04T23:33:22.163Z,37.43
2018-05-04T23:35:54.564Z,40.30
2018-05-04T23:38:27.064Z,38.63
2018-05-04T23:40:59.607Z,36.20
2018-05-04T23:43:32.866Z,39.93
2018-05-04T23:46:05.741Z,33.93
2018-05-04T23:48:39.026Z,38.50
2018-05-04T23:51:12.550Z,32.93
2018-05-04T23:53:46.093Z,35.50
2018-05-04T23:56:19.862Z,32.90
2018-05-04T23:58:52.568Z,35.00
